createdAt,value
2017-04-07T00:00:50.927Z,7.50
2017-04-07T00:01:49.999Z,7.50
2017-04-07T00:02:48.965Z,7.50
2017-04-07T00:03:47.545Z,7.50
2017-04-07T00:04:46.635Z,7.50
2017-04-07T00:05:45.627Z,7.50
2017-04-07T00:06:44.626Z,7.50
2017-04-07T00:07:43.627Z,7.50
2017-04-07T00:08:42.650Z,7.50
2017-04-07T00:09:41.646Z,7.50
2017-04-07T00:10:40.327Z,7.50
2017-04-07T00:11:39.319Z,7.50
2017-04-07T00:12:38.330Z,7.60
2017-04-07T00:13:37.337Z,7.60
2017-04-07T00:14:36.618Z,7.60
2017-04-07T00:15:35.633Z,7.60
2017-04-07T00:16:34.627Z,7.50
2017-04-07T00:17:33.652Z,7.50
2017-04-07T00:18:32.785Z,7.50
2017-04-07T00:19:31.355Z,7.50
2017-04-07T00:20:30.171Z,7.50
2017-04-07T00:21:29.148Z,7.40
2017-04-07T00:22:28.175Z,7.40
2017-04-07T00:23:27.098Z,7.40
2017-04-07T00:24:26.243Z,7.40
2017-04-07T00:25:24.856Z,7.40
2017-04-07T00:26:23.764Z,7.30
2017-04-07T00:27:23.179Z,7.30
2017-04-07T00:28:22.135Z,7.30
2017-04-07T00:29:20.685Z,7.30
2017-04-07T00:30:19.669Z,7.30
2017-04-07T00:31:18.702Z,7.30
2017-04-07T00:32:17.624Z,7.30
2017-04-07T00:33:16.623Z,7.30
2017-04-07T00:34:15.700Z,7.20
2017-04-07T00:35:14.252Z,7.30
2017-04-07T00:36:14.111Z,7.20
2017-04-07T00:37:13.091Z,7.20
2017-04-07T00:38:12.000Z,7.20
2017-04-07T00:39:11.059Z,7.20
2017-04-07T00:40:10.015Z,7.20
2017-04-07T00:41:09.039Z,7.20
2017-04-07T00:42:08.012Z,7.20
2017-04-07T00:43:07.030Z,7.10
2017-04-07T00:44:06.343Z,7.20
2017-04-07T00:45:04.952Z,7.20
2017-04-07T00:46:03.971Z,7.20
2017-04-07T00:47:02.880Z,7.20
2017-04-07T00:48:01.880Z,7.20
2017-04-07T00:49:00.881Z,7.10
2017-04-07T00:49:59.859Z,7.10
2017-04-07T00:50:58.814Z,7.10
2017-04-07T00:51:57.413Z,7.10
2017-04-07T00:52:56.376Z,7.00
2017-04-07T00:53:55.357Z,7.00
2017-04-07T00:54:54.375Z,7.00
2017-04-07T00:55:53.367Z,7.00
2017-04-07T00:56:52.360Z,7.00
2017-04-07T00:57:51.322Z,7.10
2017-04-07T00:58:50.317Z,7.00
2017-04-07T00:59:49.261Z,7.10
2017-04-07T01:00:48.191Z,7.10
2017-04-07T01:01:47.555Z,7.00
2017-04-07T01:02:46.550Z,7.00
2017-04-07T01:03:45.521Z,7.00
2017-04-07T01:04:44.530Z,7.10
2017-04-07T01:05:43.532Z,7.00
2017-04-07T01:06:42.542Z,7.00
2017-04-07T01:07:41.086Z,7.00
2017-04-07T01:08:40.059Z,7.00
2017-04-07T01:09:39.076Z,7.00
2017-04-07T01:10:38.056Z,6.90
2017-04-07T01:11:36.627Z,7.00
2017-04-07T01:12:35.944Z,7.00
2017-04-07T01:13:34.866Z,6.90
2017-04-07T01:14:33.454Z,7.00
2017-04-07T01:15:32.422Z,7.00
2017-04-07T01:16:31.826Z,7.00
2017-04-07T01:17:30.876Z,7.00
2017-04-07T01:18:29.827Z,7.00
2017-04-07T01:19:28.820Z,7.00
2017-04-07T01:20:27.823Z,7.00
2017-04-07T01:21:26.815Z,7.00
2017-04-07T01:22:25.786Z,7.00
2017-04-07T01:23:24.763Z,7.00
2017-04-07T01:24:23.730Z,7.00
2017-04-07T01:25:22.696Z,7.00
2017-04-07T01:26:21.650Z,7.00
2017-04-07T01:27:20.639Z,7.00
2017-04-07T01:28:19.587Z,7.00
2017-04-07T01:29:18.635Z,7.00
2017-04-07T01:30:17.969Z,7.00
2017-04-07T01:31:16.947Z,7.00
2017-04-07T01:32:15.506Z,7.00
2017-04-07T01:33:14.463Z,7.00
2017-04-07T01:34:13.423Z,7.00
2017-04-07T01:35:11.977Z,7.00
2017-04-07T01:36:10.983Z,6.90
2017-04-07T01:37:09.964Z,6.90
2017-04-07T01:38:09.002Z,6.90
2017-04-07T01:39:07.914Z,6.90
2017-04-07T01:40:06.899Z,6.90
2017-04-07T01:41:05.831Z,6.90
2017-04-07T01:42:04.791Z,6.90
2017-04-07T01:43:03.705Z,6.90
2017-04-07T01:44:02.744Z,6.80
2017-04-07T01:45:01.714Z,6.80
2017-04-07T01:46:00.711Z,6.80
2017-04-07T01:46:59.707Z,6.80
2017-04-07T01:47:58.745Z,6.80
2017-04-07T01:48:57.777Z,6.80
2017-04-07T01:49:56.787Z,6.80
2017-04-07T01:50:56.147Z,6.80
2017-04-07T01:51:55.094Z,6.70
2017-04-07T01:52:54.787Z,6.80
2017-04-07T01:53:53.847Z,6.70
2017-04-07T01:54:53.159Z,6.70
2017-04-07T01:55:52.147Z,6.70
2017-04-07T01:56:51.123Z,6.70
2017-04-07T01:57:50.078Z,6.70
2017-04-07T01:58:49.080Z,6.70
2017-04-07T01:59:48.175Z,6.70
2017-04-07T02:00:47.227Z,6.70
2017-04-07T02:01:46.206Z,6.60
2017-04-07T02:02:45.160Z,6.60
2017-04-07T02:03:44.204Z,6.60
2017-04-07T02:04:43.163Z,6.50
2017-04-07T02:05:42.136Z,6.50
2017-04-07T02:06:41.153Z,6.60
2017-04-07T02:07:40.119Z,6.50
2017-04-07T02:08:39.099Z,6.50
2017-04-07T02:09:38.463Z,6.50
2017-04-07T02:10:37.415Z,6.50
2017-04-07T02:11:36.379Z,6.50
2017-04-07T02:12:35.314Z,6.50
2017-04-07T02:13:34.253Z,6.50
2017-04-07T02:14:33.251Z,6.50
2017-04-07T02:15:32.176Z,6.40
2017-04-07T02:16:31.130Z,6.40
2017-04-07T02:17:30.505Z,6.40
2017-04-07T02:18:29.504Z,6.30
2017-04-07T02:19:28.483Z,6.30
2017-04-07T02:20:27.520Z,6.30
2017-04-07T02:21:26.467Z,6.30
2017-04-07T02:22:25.455Z,6.30
2017-04-07T02:23:24.491Z,6.30
2017-04-07T02:24:23.432Z,6.30
2017-04-07T02:25:22.389Z,6.30
2017-04-07T02:26:21.360Z,6.30
2017-04-07T02:27:20.331Z,6.30
2017-04-07T02:28:19.324Z,6.30
2017-04-07T02:29:18.303Z,6.30
2017-04-07T02:30:18.095Z,6.30
2017-04-07T02:31:17.040Z,6.30
2017-04-07T02:32:16.027Z,6.30
2017-04-07T02:33:15.028Z,6.20
2017-04-07T02:34:13.996Z,6.20
2017-04-07T02:35:13.016Z,6.20
2017-04-07T02:36:11.945Z,6.20
2017-04-07T02:37:10.987Z,6.20
2017-04-07T02:38:09.978Z,6.20
2017-04-07T02:39:08.935Z,6.20
2017-04-07T02:40:08.011Z,6.20
2017-04-07T02:41:06.999Z,6.20
2017-04-07T02:42:05.994Z,6.20
2017-04-07T02:43:05.014Z,6.20
2017-04-07T02:44:04.048Z,6.20
2017-04-07T02:45:03.023Z,6.20
2017-04-07T02:46:02.337Z,6.20
2017-04-07T02:47:00.932Z,6.20
2017-04-07T02:47:59.483Z,6.20
2017-04-07T02:48:58.049Z,6.10
2017-04-07T02:49:57.041Z,6.10
2017-04-07T02:50:56.056Z,6.10
2017-04-07T02:51:55.009Z,6.10
2017-04-07T02:52:53.992Z,6.00
2017-04-07T02:53:53.023Z,6.00
2017-04-07T02:54:51.549Z,6.00
2017-04-07T02:55:50.567Z,5.90
2017-04-07T02:56:49.503Z,5.90
2017-04-07T02:57:48.476Z,5.90
2017-04-07T02:58:47.864Z,5.90
2017-04-07T02:59:46.858Z,5.90
2017-04-07T03:00:46.199Z,5.90
2017-04-07T03:01:45.192Z,5.90
2017-04-07T03:02:44.583Z,5.90
2017-04-07T03:03:43.539Z,5.80
2017-04-07T03:04:42.527Z,5.80
2017-04-07T03:05:41.519Z,5.80
2017-04-07T03:06:40.515Z,5.80
2017-04-07T03:07:39.103Z,5.80
2017-04-07T03:08:38.036Z,5.70
2017-04-07T03:09:37.046Z,5.70
2017-04-07T03:10:35.990Z,5.70
2017-04-07T03:11:34.976Z,5.70
2017-04-07T03:12:33.987Z,5.70
2017-04-07T03:13:33.079Z,5.70
2017-04-07T03:14:31.999Z,5.70
2017-04-07T03:15:30.574Z,5.70
2017-04-07T03:16:29.583Z,5.70
2017-04-07T03:17:28.560Z,5.70
2017-04-07T03:18:27.253Z,5.70
2017-04-07T03:19:25.807Z,5.70
2017-04-07T03:20:25.136Z,5.70
2017-04-07T03:21:24.129Z,5.60
2017-04-07T03:22:23.115Z,5.60
2017-04-07T03:23:22.171Z,5.60
2017-04-07T03:24:21.108Z,5.60
2017-04-07T03:25:20.132Z,5.60
2017-04-07T03:26:19.127Z,5.60
2017-04-07T03:27:17.695Z,5.60
2017-04-07T03:28:16.704Z,5.60
2017-04-07T03:29:15.703Z,5.60
2017-04-07T03:30:14.675Z,5.60
2017-04-07T03:31:13.620Z,5.50
2017-04-07T03:32:12.194Z,5.50
2017-04-07T03:33:11.220Z,5.50
2017-04-07T03:34:10.250Z,5.50
2017-04-07T03:35:09.608Z,5.50
2017-04-07T03:36:08.542Z,5.40
2017-04-07T03:37:07.551Z,5.40
2017-04-07T03:38:06.535Z,5.50
2017-04-07T03:39:05.887Z,5.50
2017-04-07T03:40:04.943Z,5.40
2017-04-07T03:41:03.851Z,5.40
2017-04-07T03:42:02.790Z,5.40
2017-04-07T03:43:02.176Z,5.40
2017-04-07T03:44:01.143Z,5.30
2017-04-07T03:45:00.099Z,5.30
2017-04-07T03:45:59.099Z,5.30
2017-04-07T03:46:58.060Z,5.30
2017-04-07T03:47:57.370Z,5.30
2017-04-07T03:48:55.918Z,5.30
2017-04-07T03:49:54.625Z,5.20
2017-04-07T03:50:53.610Z,5.20
2017-04-07T03:51:53.027Z,5.20
2017-04-07T03:52:52.032Z,5.10
2017-04-07T03:53:51.031Z,5.20
2017-04-07T03:54:50.136Z,5.10
2017-04-07T03:55:49.172Z,5.10
2017-04-07T03:56:48.200Z,5.00
2017-04-07T03:57:46.833Z,5.00
2017-04-07T03:58:45.950Z,5.10
2017-04-07T03:59:44.937Z,5.00
2017-04-07T04:00:43.937Z,5.00
2017-04-07T04:01:42.943Z,5.00
2017-04-07T04:02:41.982Z,5.00
2017-04-07T04:03:41.054Z,5.00
2017-04-07T04:04:39.986Z,5.00
2017-04-07T04:05:39.019Z,5.00
2017-04-07T04:06:38.006Z,5.00
2017-04-07T04:07:36.947Z,5.00
2017-04-07T04:08:36.308Z,5.00
2017-04-07T04:09:35.335Z,5.00
2017-04-07T04:10:34.286Z,5.00
2017-04-07T04:11:33.300Z,5.00
2017-04-07T04:12:32.676Z,5.00
2017-04-07T04:13:31.652Z,5.00
2017-04-07T04:14:30.204Z,5.00
2017-04-07T04:15:29.304Z,5.00
2017-04-07T04:16:32.469Z,5.00
2017-04-07T04:17:31.891Z,5.00
2017-04-07T04:18:30.840Z,5.00
2017-04-07T04:19:29.756Z,5.00
2017-04-07T04:20:28.759Z,4.90
2017-04-07T04:21:27.792Z,4.90
2017-04-07T04:22:26.352Z,5.00
2017-04-07T04:23:25.372Z,4.90
2017-04-07T04:24:24.463Z,4.90
2017-04-07T04:25:23.390Z,4.90
2017-04-07T04:26:22.428Z,4.90
2017-04-07T04:27:21.446Z,4.90
2017-04-07T04:28:20.426Z,4.90
2017-04-07T04:29:19.411Z,4.90
2017-04-07T04:30:18.364Z,4.90
2017-04-07T04:31:16.964Z,4.90
2017-04-07T04:32:15.927Z,4.90
2017-04-07T04:33:14.962Z,4.80
2017-04-07T04:34:13.935Z,4.90
2017-04-07T04:35:12.864Z,4.90
2017-04-07T04:36:11.863Z,4.90
2017-04-07T04:37:10.843Z,4.90
2017-04-07T04:38:09.857Z,4.90
2017-04-07T04:39:08.768Z,4.90
2017-04-07T04:40:07.760Z,4.90
2017-04-07T04:41:07.048Z,4.90
2017-04-07T04:42:06.096Z,4.90
2017-04-07T04:43:05.119Z,4.90
2017-04-07T04:44:03.666Z,4.90
2017-04-07T04:45:02.293Z,4.90
2017-04-07T04:46:01.232Z,4.80
2017-04-07T04:46:59.903Z,4.80
2017-04-07T04:47:58.843Z,4.90
2017-04-07T04:48:57.823Z,4.90
2017-04-07T04:49:56.343Z,4.90
2017-04-07T04:50:54.965Z,4.90
2017-04-07T04:51:53.991Z,4.90
2017-04-07T04:52:52.959Z,4.80
2017-04-07T04:53:51.948Z,4.80
2017-04-07T04:54:50.897Z,4.80
2017-04-07T04:55:49.816Z,4.80
2017-04-07T04:56:49.211Z,4.80
2017-04-07T04:57:48.258Z,4.80
2017-04-07T04:58:46.777Z,4.80
2017-04-07T04:59:46.139Z,4.80
2017-04-07T05:00:45.125Z,4.80
2017-04-07T05:01:44.079Z,4.80
2017-04-07T05:02:42.635Z,4.80
2017-04-07T05:03:42.080Z,4.90
2017-04-07T05:04:41.071Z,4.90
2017-04-07T05:05:40.007Z,5.00
2017-04-07T05:06:38.592Z,5.00
2017-04-07T05:07:37.188Z,5.00
2017-04-07T05:08:36.220Z,5.10
2017-04-07T05:09:35.163Z,5.20
2017-04-07T05:10:34.113Z,5.20
2017-04-07T05:11:33.118Z,5.30
2017-04-07T05:12:32.131Z,5.30
2017-04-07T05:13:31.142Z,5.40
2017-04-07T05:14:29.786Z,5.40
2017-04-07T05:15:28.779Z,5.40
2017-04-07T05:16:27.740Z,5.50
2017-04-07T05:17:26.708Z,5.50
2017-04-07T05:18:25.647Z,5.60
2017-04-07T05:19:24.634Z,5.60
2017-04-07T05:20:23.679Z,5.70
2017-04-07T05:21:22.641Z,5.70
2017-04-07T05:22:21.664Z,5.70
2017-04-07T05:23:20.639Z,5.70
2017-04-07T05:24:19.215Z,5.70
2017-04-07T05:25:18.152Z,5.80
2017-04-07T05:26:17.237Z,5.80
2017-04-07T05:27:16.158Z,5.90
2017-04-07T05:28:15.554Z,5.90
2017-04-07T05:29:14.476Z,5.90
2017-04-07T05:30:13.044Z,5.90
2017-04-07T05:31:12.399Z,5.90
2017-04-07T05:32:11.364Z,6.00
2017-04-07T05:33:10.382Z,6.00
2017-04-07T05:34:09.011Z,6.00
2017-04-07T05:35:07.910Z,6.00
2017-04-07T05:36:06.900Z,6.00
2017-04-07T05:37:09.641Z,6.00
2017-04-07T05:38:45.921Z,6.00
2017-04-07T05:39:53.219Z,6.00
2017-04-07T05:41:00.868Z,6.00
2017-04-07T05:42:27.797Z,6.10
2017-04-07T05:43:32.262Z,6.10
2017-04-07T05:44:31.238Z,6.10
2017-04-07T05:45:30.674Z,6.10
2017-04-07T05:46:29.633Z,6.10
2017-04-07T05:47:28.660Z,6.20
2017-04-07T05:48:27.650Z,6.20
2017-04-07T05:49:26.599Z,6.20
2017-04-07T05:50:25.983Z,6.20
2017-04-07T05:51:25.027Z,6.30
2017-04-07T05:52:23.979Z,6.30
2017-04-07T05:53:22.977Z,6.30
2017-04-07T05:54:21.967Z,6.30
2017-04-07T05:55:21.711Z,6.30
2017-04-07T05:56:21.187Z,6.40
2017-04-07T05:57:20.175Z,6.40
2017-04-07T05:58:19.171Z,6.40
2017-04-07T05:59:17.723Z,6.40
2017-04-07T06:00:16.719Z,6.40
2017-04-07T06:01:15.273Z,6.40
2017-04-07T06:02:14.303Z,6.50
2017-04-07T06:03:13.666Z,6.40
2017-04-07T06:04:12.613Z,6.40
2017-04-07T06:05:11.622Z,6.50
2017-04-07T06:06:10.560Z,6.50
2017-04-07T06:07:09.190Z,6.50
2017-04-07T06:08:08.171Z,6.70
2017-04-07T06:09:07.112Z,6.70
2017-04-07T06:10:06.221Z,6.70
2017-04-07T06:11:04.753Z,6.70
2017-04-07T06:12:03.783Z,6.70
2017-04-07T06:13:02.711Z,6.70
2017-04-07T06:14:01.717Z,6.80
2017-04-07T06:15:00.667Z,6.80
2017-04-07T06:15:59.623Z,6.80
2017-04-07T06:16:58.673Z,6.80
2017-04-07T06:17:57.628Z,6.90
2017-04-07T06:18:56.954Z,6.90
2017-04-07T06:19:55.940Z,7.00
2017-04-07T06:20:54.862Z,7.00
2017-04-07T06:21:53.868Z,7.00
2017-04-07T06:22:53.215Z,7.10
2017-04-07T06:23:52.204Z,7.10
2017-04-07T06:24:51.135Z,7.10
2017-04-07T06:25:50.159Z,7.20
2017-04-07T06:26:49.131Z,7.20
2017-04-07T06:27:48.078Z,7.20
2017-04-07T06:28:46.656Z,7.20
2017-04-07T06:29:45.983Z,7.20
2017-04-07T06:30:44.951Z,7.30
2017-04-07T06:31:43.892Z,7.30
2017-04-07T06:32:42.862Z,7.30
2017-04-07T06:33:41.817Z,7.30
2017-04-07T06:34:40.786Z,7.30
2017-04-07T06:35:39.730Z,7.40
2017-04-07T06:36:38.719Z,7.40
2017-04-07T06:37:38.057Z,7.40
2017-04-07T06:38:36.637Z,7.40
2017-04-07T06:39:35.606Z,7.50
2017-04-07T06:40:34.594Z,7.50
2017-04-07T06:41:33.560Z,7.60
2017-04-07T06:42:32.547Z,7.60
2017-04-07T06:43:31.488Z,7.50
2017-04-07T06:44:30.444Z,7.50
2017-04-07T06:45:29.447Z,7.50
2017-04-07T06:46:28.374Z,7.50
2017-04-07T06:47:27.348Z,7.50
2017-04-07T06:48:29.343Z,7.60
2017-04-07T06:49:28.351Z,7.60
2017-04-07T06:50:26.943Z,7.60
2017-04-07T06:51:25.547Z,7.70
2017-04-07T06:52:24.495Z,7.80
2017-04-07T06:53:23.502Z,7.80
2017-04-07T06:54:22.528Z,7.90
2017-04-07T06:55:21.568Z,7.80
2017-04-07T06:56:20.955Z,7.90
2017-04-07T06:57:19.948Z,8.00
2017-04-07T06:58:18.931Z,8.00
2017-04-07T06:59:17.858Z,8.00
2017-04-07T07:00:16.921Z,8.10
2017-04-07T07:01:15.944Z,8.20
2017-04-07T07:02:14.882Z,8.20
2017-04-07T07:03:13.862Z,8.20
2017-04-07T07:04:12.941Z,8.30
2017-04-07T07:05:12.484Z,8.30
2017-04-07T07:06:11.434Z,8.30
2017-04-07T07:07:10.540Z,8.30
2017-04-07T07:08:09.481Z,8.30
2017-04-07T07:09:08.600Z,8.30
2017-04-07T07:10:07.560Z,8.30
2017-04-07T07:11:06.536Z,8.30
2017-04-07T07:12:05.179Z,8.30
2017-04-07T07:13:04.187Z,8.40
2017-04-07T07:14:03.607Z,8.40
2017-04-07T07:15:02.638Z,8.40
2017-04-07T07:16:01.616Z,8.50
2017-04-07T07:17:00.616Z,8.50
2017-04-07T07:17:59.234Z,8.50
2017-04-07T07:18:58.208Z,8.40
2017-04-07T07:19:57.301Z,8.50
2017-04-07T07:20:56.323Z,8.50
2017-04-07T07:21:56.372Z,8.50
2017-04-07T07:22:55.374Z,8.50
2017-04-07T07:23:54.306Z,8.50
2017-04-07T07:24:53.360Z,8.50
2017-04-07T07:25:53.075Z,8.50
2017-04-07T07:26:51.695Z,8.50
2017-04-07T07:27:51.038Z,8.40
2017-04-07T07:28:49.618Z,8.50
2017-04-07T07:29:49.073Z,8.40
2017-04-07T07:30:48.102Z,8.40
2017-04-07T07:31:47.491Z,8.50
2017-04-07T07:32:46.455Z,8.50
2017-04-07T07:33:45.413Z,8.50
2017-04-07T07:34:44.072Z,8.50
2017-04-07T07:35:43.495Z,8.50
2017-04-07T07:36:42.127Z,8.50
2017-04-07T07:37:40.771Z,8.50
2017-04-07T07:38:39.730Z,8.60
2017-04-07T07:39:38.335Z,8.60
2017-04-07T07:40:37.240Z,8.60
2017-04-07T07:41:36.231Z,8.70
2017-04-07T07:42:35.244Z,8.70
2017-04-07T07:43:34.218Z,8.80
2017-04-07T07:44:33.206Z,8.80
2017-04-07T07:45:32.179Z,8.90
2017-04-07T07:46:31.147Z,8.80
2017-04-07T07:47:30.440Z,8.90
2017-04-07T07:48:29.463Z,8.90
2017-04-07T07:49:28.451Z,9.00
2017-04-07T07:50:27.429Z,9.00
2017-04-07T07:51:26.504Z,9.00
2017-04-07T07:52:25.428Z,9.00
2017-04-07T07:53:24.799Z,9.00
2017-04-07T07:54:23.871Z,9.00
2017-04-07T07:55:22.856Z,9.00
2017-04-07T07:56:21.810Z,9.00
2017-04-07T07:57:20.869Z,9.00
2017-04-07T07:58:19.847Z,9.00
2017-04-07T07:59:18.431Z,8.90
2017-04-07T08:00:17.502Z,9.00
2017-04-07T08:01:16.459Z,9.00
2017-04-07T08:02:15.035Z,9.00
2017-04-07T08:03:14.019Z,9.10
2017-04-07T08:04:13.000Z,9.10
2017-04-07T08:05:11.976Z,9.10
2017-04-07T08:06:10.950Z,9.10
2017-04-07T08:07:09.932Z,9.10
2017-04-07T08:08:08.916Z,9.10
2017-04-07T08:09:07.874Z,9.20
2017-04-07T08:10:06.878Z,9.20
2017-04-07T08:11:05.804Z,9.30
2017-04-07T08:12:04.795Z,9.30
2017-04-07T08:13:03.786Z,9.40
2017-04-07T08:14:02.700Z,9.50
2017-04-07T08:15:01.646Z,9.60
2017-04-07T08:16:00.687Z,9.60
2017-04-07T08:16:59.775Z,9.60
2017-04-07T08:17:58.767Z,9.60
2017-04-07T08:18:57.780Z,9.60
2017-04-07T08:19:56.787Z,9.70
2017-04-07T08:20:55.759Z,9.80
2017-04-07T08:21:54.735Z,9.80
2017-04-07T08:22:53.338Z,9.80
2017-04-07T08:23:52.262Z,9.80
2017-04-07T08:24:51.302Z,9.90
2017-04-07T08:25:49.874Z,9.90
2017-04-07T08:26:48.456Z,9.90
2017-04-07T08:27:47.387Z,9.90
2017-04-07T08:28:46.768Z,10.00
2017-04-07T08:29:45.776Z,10.00
2017-04-07T08:30:44.755Z,10.10
2017-04-07T08:31:43.742Z,10.10
2017-04-07T08:32:42.711Z,10.10
2017-04-07T08:33:41.660Z,10.10
2017-04-07T08:34:40.656Z,10.20
2017-04-07T08:35:39.606Z,10.20
2017-04-07T08:36:38.898Z,10.30
2017-04-07T08:37:38.043Z,10.30
2017-04-07T08:38:37.215Z,10.30
2017-04-07T08:39:36.191Z,10.30
2017-04-07T08:40:35.187Z,10.30
2017-04-07T08:41:34.158Z,10.30
2017-04-07T08:42:33.141Z,10.30
2017-04-07T08:43:32.174Z,10.40
2017-04-07T08:44:31.158Z,10.40
2017-04-07T08:45:29.708Z,10.40
2017-04-07T08:46:28.683Z,10.40
2017-04-07T08:47:27.288Z,10.40
2017-04-07T08:48:26.254Z,10.40
2017-04-07T08:49:25.243Z,10.50
2017-04-07T08:50:24.292Z,10.50
2017-04-07T08:51:23.291Z,10.50
2017-04-07T08:52:22.347Z,10.50
2017-04-07T08:53:21.302Z,10.50
2017-04-07T08:54:19.879Z,10.50
2017-04-07T08:55:19.200Z,10.40
2017-04-07T08:56:18.219Z,10.40
2017-04-07T08:57:17.172Z,10.40
2017-04-07T08:58:16.127Z,10.40
2017-04-07T08:59:15.222Z,10.50
2017-04-07T09:00:13.812Z,10.50
2017-04-07T09:01:12.919Z,10.60
2017-04-07T09:02:11.947Z,10.70
2017-04-07T09:03:10.519Z,10.70
2017-04-07T09:04:09.896Z,10.80
2017-04-07T09:05:08.864Z,10.80
2017-04-07T09:06:07.822Z,10.80
2017-04-07T09:07:06.863Z,10.70
2017-04-07T09:08:05.864Z,10.70
2017-04-07T09:09:05.795Z,10.80
2017-04-07T09:10:04.807Z,10.70
2017-04-07T09:11:03.804Z,10.70
2017-04-07T09:12:02.755Z,10.70
2017-04-07T09:13:01.707Z,10.80
2017-04-07T09:14:00.670Z,10.80
2017-04-07T09:14:59.985Z,10.80
2017-04-07T09:15:58.965Z,10.80
2017-04-07T09:16:57.971Z,10.80
2017-04-07T09:17:56.947Z,10.80
2017-04-07T09:18:55.489Z,10.80
2017-04-07T09:19:54.123Z,10.80
2017-04-07T09:20:53.092Z,10.90
2017-04-07T09:21:52.171Z,11.00
2017-04-07T09:22:51.139Z,11.10
2017-04-07T09:23:50.132Z,11.10
2017-04-07T09:24:49.111Z,11.20
2017-04-07T09:25:48.147Z,11.30
2017-04-07T09:26:47.053Z,11.40
2017-04-07T09:27:46.072Z,11.50
2017-04-07T09:28:44.648Z,11.50
2017-04-07T09:29:43.588Z,11.70
2017-04-07T09:30:42.872Z,11.70
2017-04-07T09:31:41.502Z,11.70
2017-04-07T09:32:40.448Z,11.70
2017-04-07T09:33:39.498Z,11.80
2017-04-07T09:34:38.479Z,11.80
2017-04-07T09:35:37.421Z,11.90
2017-04-07T09:36:36.391Z,11.90
2017-04-07T09:37:34.988Z,11.90
2017-04-07T09:38:33.964Z,11.80
2017-04-07T09:39:32.931Z,11.80
2017-04-07T09:40:31.911Z,11.70
2017-04-07T09:41:31.055Z,11.60
2017-04-07T09:42:30.031Z,11.70
2017-04-07T09:43:29.019Z,11.70
2017-04-07T09:44:28.006Z,11.80
2017-04-07T09:45:26.984Z,11.80
2017-04-07T09:46:25.950Z,11.70
2017-04-07T09:47:24.930Z,11.80
2017-04-07T09:48:23.535Z,11.80
2017-04-07T09:49:22.498Z,11.80
2017-04-07T09:50:21.519Z,11.70
2017-04-07T09:51:20.474Z,11.80
2017-04-07T09:52:19.887Z,11.90
2017-04-07T09:53:18.826Z,12.10
2017-04-07T09:54:17.766Z,12.20
2017-04-07T09:55:16.825Z,12.30
2017-04-07T09:56:15.786Z,12.30
2017-04-07T09:57:14.798Z,12.30
2017-04-07T09:58:13.324Z,12.30
2017-04-07T09:59:12.282Z,12.30
2017-04-07T10:00:11.275Z,12.20
2017-04-07T10:01:10.239Z,12.10
2017-04-07T10:02:09.264Z,12.20
2017-04-07T10:03:08.251Z,12.20
2017-04-07T10:04:07.209Z,12.30
2017-04-07T10:05:06.200Z,12.40
2017-04-07T10:06:04.794Z,12.40
2017-04-07T10:07:03.419Z,12.40
2017-04-07T10:08:01.980Z,12.40
2017-04-07T10:09:00.949Z,12.60
2017-04-07T10:09:59.898Z,12.60
2017-04-07T10:10:58.829Z,12.70
2017-04-07T10:11:57.871Z,12.70
2017-04-07T10:12:56.843Z,12.80
2017-04-07T10:13:55.808Z,12.80
2017-04-07T10:14:54.787Z,12.70
2017-04-07T10:15:53.791Z,12.60
2017-04-07T10:16:52.415Z,12.60
2017-04-07T10:17:51.382Z,12.60
2017-04-07T10:18:50.318Z,12.70
2017-04-07T10:19:49.347Z,12.70
2017-04-07T10:20:48.300Z,12.60
2017-04-07T10:21:47.283Z,12.50
2017-04-07T10:22:46.219Z,12.50
2017-04-07T10:23:45.176Z,12.60
2017-04-07T10:24:43.815Z,12.60
2017-04-07T10:25:42.851Z,12.80
2017-04-07T10:26:41.820Z,12.90
2017-04-07T10:27:41.207Z,13.00
2017-04-07T10:28:40.167Z,13.00
2017-04-07T10:29:39.123Z,13.10
2017-04-07T10:30:38.091Z,13.10
2017-04-07T10:31:36.679Z,13.10
2017-04-07T10:32:36.039Z,13.20
2017-04-07T10:33:35.007Z,13.20
2017-04-07T10:34:34.036Z,13.20
2017-04-07T10:35:33.347Z,13.10
2017-04-07T10:36:32.331Z,13.10
2017-04-07T10:37:30.900Z,13.10
2017-04-07T10:38:29.866Z,13.30
2017-04-07T10:39:29.227Z,13.30
2017-04-07T10:40:28.180Z,13.40
2017-04-07T10:41:27.194Z,13.30
2017-04-07T10:42:26.145Z,13.30
2017-04-07T10:43:24.710Z,13.30
2017-04-07T10:44:23.680Z,13.00
2017-04-07T10:45:22.731Z,12.90
2017-04-07T10:46:21.843Z,12.80
2017-04-07T10:47:21.179Z,12.60
2017-04-07T10:48:20.111Z,12.60
2017-04-07T10:49:19.470Z,12.80
2017-04-07T10:50:18.447Z,12.80
2017-04-07T10:51:17.458Z,12.90
2017-04-07T10:52:16.047Z,12.90
2017-04-07T10:53:14.999Z,13.00
2017-04-07T10:54:13.966Z,12.90
2017-04-07T10:55:12.988Z,12.90
2017-04-07T10:56:11.588Z,12.90
2017-04-07T10:57:10.137Z,12.90
2017-04-07T10:58:09.159Z,12.90
2017-04-07T10:59:07.684Z,13.00
2017-04-07T11:00:06.669Z,13.00
2017-04-07T11:01:05.275Z,13.00
2017-04-07T11:02:04.253Z,13.10
2017-04-07T11:03:03.232Z,13.10
2017-04-07T11:04:01.783Z,13.20
2017-04-07T11:05:00.780Z,13.20
2017-04-07T11:05:59.742Z,13.20
2017-04-07T11:06:58.356Z,13.10
2017-04-07T11:07:57.394Z,13.20
2017-04-07T11:08:56.371Z,13.30
2017-04-07T11:09:55.361Z,13.40
2017-04-07T11:10:54.317Z,13.50
2017-04-07T11:11:53.303Z,13.50
2017-04-07T11:12:52.280Z,13.60
2017-04-07T11:13:51.260Z,13.60
2017-04-07T11:14:50.180Z,13.60
2017-04-07T11:15:49.171Z,13.60
2017-04-07T11:16:47.767Z,13.60
2017-04-07T11:17:46.729Z,13.70
2017-04-07T11:18:45.357Z,13.70
2017-04-07T11:19:43.935Z,13.70
2017-04-07T11:20:42.904Z,13.70
2017-04-07T11:21:41.927Z,13.60
2017-04-07T11:22:41.015Z,13.40
2017-04-07T11:23:39.992Z,13.30
2017-04-07T11:24:38.979Z,13.30
2017-04-07T11:25:37.958Z,13.30
2017-04-07T11:26:36.902Z,13.40
2017-04-07T11:27:35.883Z,13.50
2017-04-07T11:28:34.802Z,13.60
2017-04-07T11:29:34.203Z,13.70
2017-04-07T11:30:33.158Z,13.70
2017-04-07T11:31:32.184Z,13.60
2017-04-07T11:32:31.174Z,13.60
2017-04-07T11:33:30.492Z,13.50
2017-04-07T11:34:29.462Z,13.50
2017-04-07T11:35:28.372Z,13.50
2017-04-07T11:36:27.381Z,13.50
2017-04-07T11:37:26.391Z,13.50
2017-04-07T11:38:25.352Z,13.40
2017-04-07T11:39:24.359Z,13.40
2017-04-07T11:40:22.928Z,13.40
2017-04-07T11:41:21.903Z,13.20
2017-04-07T11:42:20.862Z,13.30
2017-04-07T11:43:19.899Z,13.20
2017-04-07T11:44:19.195Z,13.20
2017-04-07T11:45:18.179Z,13.20
2017-04-07T11:46:16.718Z,13.20
2017-04-07T11:47:15.669Z,13.40
2017-04-07T11:48:14.599Z,13.40
2017-04-07T11:49:13.227Z,13.40
2017-04-07T11:50:12.207Z,13.60
2017-04-07T11:51:11.267Z,13.60
2017-04-07T11:52:10.271Z,13.60
2017-04-07T11:53:09.230Z,13.70
2017-04-07T11:54:08.230Z,13.70
2017-04-07T11:55:06.800Z,13.70
2017-04-07T11:56:05.768Z,13.60
2017-04-07T11:57:05.124Z,13.60
2017-04-07T11:58:04.114Z,13.50
2017-04-07T11:59:03.056Z,13.60
2017-04-07T12:00:02.115Z,13.60
2017-04-07T12:01:01.156Z,13.60
2017-04-07T12:02:00.145Z,13.60
2017-04-07T12:02:59.138Z,13.60
2017-04-07T12:03:58.122Z,13.70
2017-04-07T12:04:57.136Z,13.70
2017-04-07T12:05:56.431Z,13.70
2017-04-07T12:06:55.407Z,13.70
2017-04-07T12:07:54.390Z,13.70
2017-04-07T12:08:53.384Z,13.70
2017-04-07T12:09:52.369Z,13.80
2017-04-07T12:10:51.318Z,13.90
2017-04-07T12:11:50.383Z,13.90
2017-04-07T12:12:49.357Z,13.90
2017-04-07T12:13:48.272Z,14.00
2017-04-07T12:14:47.615Z,13.90
2017-04-07T12:15:46.251Z,13.90
2017-04-07T12:16:45.587Z,14.00
2017-04-07T12:17:44.519Z,13.90
2017-04-07T12:18:43.855Z,13.90
2017-04-07T12:19:42.512Z,13.90
2017-04-07T12:20:41.463Z,13.90
2017-04-07T12:21:40.060Z,13.90
2017-04-07T12:22:39.085Z,13.90
2017-04-07T12:23:38.031Z,13.90
2017-04-07T12:24:37.076Z,14.00
2017-04-07T12:25:36.047Z,13.90
2017-04-07T12:26:34.995Z,13.90
2017-04-07T12:27:34.031Z,14.00
2017-04-07T12:28:33.030Z,14.00
2017-04-07T12:29:32.007Z,14.00
2017-04-07T12:30:31.330Z,14.10
2017-04-07T12:31:30.312Z,14.10
2017-04-07T12:32:29.275Z,14.10
2017-04-07T12:33:28.268Z,14.10
2017-04-07T12:34:27.315Z,14.00
2017-04-07T12:35:26.334Z,14.00
2017-04-07T12:36:25.300Z,14.00
2017-04-07T12:37:24.262Z,14.00
2017-04-07T12:38:23.231Z,14.00
2017-04-07T12:39:22.325Z,14.00
2017-04-07T12:40:21.312Z,14.00
2017-04-07T12:41:20.289Z,14.00
2017-04-07T12:42:19.248Z,14.00
2017-04-07T12:43:17.829Z,14.00
2017-04-07T12:44:16.362Z,14.00
2017-04-07T12:45:15.419Z,13.70
2017-04-07T12:46:14.009Z,13.70
2017-04-07T12:47:13.057Z,13.70
2017-04-07T12:48:11.710Z,13.70
2017-04-07T12:49:10.654Z,13.60
2017-04-07T12:50:10.019Z,13.60
2017-04-07T12:51:09.031Z,13.60
2017-04-07T12:52:08.455Z,13.50
2017-04-07T12:53:07.015Z,13.50
2017-04-07T12:54:05.639Z,13.50
2017-04-07T12:55:04.680Z,13.60
2017-04-07T12:56:03.672Z,13.80
2017-04-07T12:57:02.727Z,13.90
2017-04-07T12:58:02.125Z,13.90